Deva — A8OK3 — position and weather

sailwx.info

Track history (hours):
 
Tides and Currents Weather Stations Pressure Air Temp Water Temp Dewpoint Dewpoint Depression Visibility Wind Speed Wind Dir Waves Ship Positions

Deva

Last reported at 2015-Feb-23 22:32 UTC. Time now 2015-Mar-03 07:22 UTC.
Position N 31°03' E 122°35'.

Length 259 m; draft 8.8 m.

Type: Ship (hazmat cat A). MMSI: 636013644.

Date/timePositionNaut miles runAvg speedWind from/ knotsBaromVisibWave heightAir tempDewpointWater temp
2015-Feb-23 22:32N 31°03' E 122°35'1212.5
2015-Feb-23 21:33N 31°06' E 122°21'1514.7
2015-Feb-23 20:34N 31°13' E 122°06'1514.7
2015-Feb-23 19:34N 31°17' E 121°49'1211.7
2015-Feb-23 18:34N 31°22' E 121°37'2 2.1
2015-Feb-23 17:31N 31°23' E 121°35'0 0.0
2015-Feb-23 16:31N 31°23' E 121°35'0 0.0
2015-Feb-23 15:31N 31°23' E 121°35'0 0.0
2015-Feb-23 14:31N 31°23' E 121°35'0 0.0
2015-Feb-23 13:31N 31°23' E 121°35'0 0.0
2015-Feb-23 12:31N 31°23' E 121°35'0 0.0
2015-Feb-23 11:31N 31°23' E 121°35'0 0.0
2015-Feb-23 10:31N 31°23' E 121°35'0 0.0
2015-Feb-23 09:31N 31°23' E 121°35'0 0.0
2015-Feb-23 08:31N 31°23' E 121°35'0 0.0
2015-Feb-23 07:31N 31°23' E 121°35'0 0.0
2015-Feb-23 06:34N 31°23' E 121°35'6 5.8
2015-Feb-23 05:33N 31°20' E 121°41'1313.0
2015-Feb-23 04:33N 31°16' E 121°55'1212.2
2015-Feb-23 03:34N 31°12' E 122°09'1110.8
2015-Feb-23 02:34N 31°06' E 122°19'1010.1
2015-Feb-23 01:33N 31°06' E 122°31'7 5.0
2015-Feb-23 00:13N 31°10' E 122°38'0 0.0
2015-Feb-22 23:07N 31°10' E 122°38'0 0.1
2015-Feb-22 22:04N 31°10' E 122°38'0 0.0
2015-Feb-22 19:33N 31°10' E 122°38'0 0.0
2015-Feb-22 15:24N 31°10' E 122°38'0 0.1
2015-Feb-22 14:33N 31°10' E 122°38'0 0.0
2015-Feb-22 13:09N 31°10' E 122°38'1 0.2
2015-Feb-22 07:23N 31°09' E 122°39'8110.3
2015-Feb-21 23:32N 29°49' E 122°35'1110.8
2015-Feb-21 22:33N 29°43' E 122°25'1313.4
2015-Feb-21 21:33N 29°50' E 122°12'1312.9
2015-Feb-21 20:33N 29°57' E 121°60'8 7.9
2015-Feb-21 19:33N 29°57' E 121°50'0 0.0
2015-Feb-21 18:33N 29°57' E 121°50'0 0.0
2015-Feb-21 17:27N 29°57' E 121°50'0 0.0
2015-Feb-21 16:33N 29°57' E 121°50'0 0.0
2015-Feb-21 15:33N 29°57' E 121°50'0 0.0
2015-Feb-21 14:33N 29°57' E 121°50'0 0.0
2015-Feb-21 13:33N 29°57' E 121°50'0 0.0
2015-Feb-21 12:15N 29°57' E 121°50'0 0.0
2015-Feb-21 11:27N 29°57' E 121°50'0 0.0
2015-Feb-21 10:33N 29°57' E 121°50'0 0.0
2015-Feb-21 09:33N 29°57' E 121°50'0 0.0
2015-Feb-21 08:33N 29°57' E 121°50'0 0.0
2015-Feb-21 07:33N 29°57' E 121°50'0 0.0
2015-Feb-21 06:33N 29°57' E 121°50'2 2.5
2015-Feb-21 05:33N 29°57' E 121°53'1211.7
2015-Feb-21 04:33N 29°56' E 122°07'1111.4
2015-Feb-21 03:33N 29°47' E 122°16'6 2.8
2015-Feb-21 01:25N 29°46' E 122°22'0 0.0
2015-Feb-21 00:19N 29°45' E 122°22'0 0.0
2015-Feb-20 23:25N 29°45' E 122°22'0 0.1
2015-Feb-20 22:19N 29°45' E 122°22'0 0.2
2015-Feb-20 21:25N 29°45' E 122°22'0 0.1
2015-Feb-20 20:16N 29°45' E 122°23'0 0.0
2015-Feb-20 19:13N 29°45' E 122°23'0 0.1
2015-Feb-20 18:19N 29°45' E 122°23'0 0.1
2015-Feb-20 16:13N 29°46' E 122°22'0 0.0
2015-Feb-20 13:31N 29°46' E 122°22'0 0.1
2015-Feb-20 12:31N 29°45' E 122°22'0 0.1
2015-Feb-20 09:13N 29°45' E 122°22'0 0.1
2015-Feb-20 08:10N 29°45' E 122°23'0 0.0
2015-Feb-20 07:31N 29°45' E 122°23'0 0.1
2015-Feb-20 06:31N 29°45' E 122°23'0 0.1
2015-Feb-20 05:25N 29°46' E 122°22'0 0.1
2015-Feb-20 04:24N 29°46' E 122°22'0 0.0
2015-Feb-20 03:30N 29°46' E 122°22'0 0.0
2015-Feb-20 02:12N 29°46' E 122°22'0 0.0
2015-Feb-20 01:24N 29°46' E 122°22'0 0.0
2015-Feb-19 23:24N 29°46' E 122°22'0 0.0
2015-Feb-19 22:30N 29°45' E 122°22'0 0.2
2015-Feb-19 21:24N 29°45' E 122°23'0 0.0
2015-Feb-19 20:24N 29°45' E 122°23'0 0.0
2015-Feb-19 19:18N 29°45' E 122°23'0 0.0
2015-Feb-19 18:30N 29°45' E 122°23'0 0.1
2015-Feb-19 17:06N 29°46' E 122°22'0 0.1
2015-Feb-19 15:30N 29°46' E 122°22'0 0.0
2015-Feb-19 12:24N 29°45' E 122°22'0 0.1
2015-Feb-19 11:30N 29°45' E 122°22'0 0.1
2015-Feb-19 09:18N 29°45' E 122°22'0 0.1
2015-Feb-19 08:30N 29°45' E 122°22'0 0.0
2015-Feb-19 06:30N 29°45' E 122°22'0 0.0
2015-Feb-19 05:33N 29°45' E 122°22'0 0.2
2015-Feb-19 04:12N 29°46' E 122°22'0 0.1
2015-Feb-19 02:18N 29°46' E 122°22'0 0.0
2015-Feb-19 01:30N 29°46' E 122°22'0 0.0
2015-Feb-19 00:18N 29°46' E 122°22'0 0.1
2015-Feb-18 23:12N 29°45' E 122°22'0 0.1
2015-Feb-18 22:30N 29°45' E 122°22'0 0.1
2015-Feb-18 21:33N 29°45' E 122°22'7 7.4
2015-Feb-18 20:33N 29°48' E 122°14'1312.9
2015-Feb-18 19:34N 29°55' E 122°02'8 7.0
2015-Feb-18 18:21N 29°56' E 121°52'0 0.0
2015-Feb-18 17:26N 29°56' E 121°52'0 0.0
2015-Feb-18 16:26N 29°56' E 121°52'0 0.0
2015-Feb-18 15:32N 29°56' E 121°52'0 0.0
2015-Feb-18 14:32N 29°56' E 121°52'0 0.0
2015-Feb-18 13:20N 29°56' E 121°52'0 0.0
2015-Feb-18 12:32N 29°56' E 121°52'0 0.0
2015-Feb-18 11:32N 29°56' E 121°52'0 0.0
2015-Feb-18 10:32N 29°56' E 121°52'0 0.0
2015-Feb-18 09:29N 29°56' E 121°52'0 0.0
2015-Feb-18 08:32N 29°56' E 121°52'0 0.0
2015-Feb-18 07:32N 29°56' E 121°52'0 0.0
2015-Feb-18 06:32N 29°56' E 121°52'0 0.0
2015-Feb-18 05:32N 29°56' E 121°52'0 0.0
2015-Feb-18 04:32N 29°56' E 121°52'3 2.6
2015-Feb-18 03:34N 29°57' E 121°55'1211.8
2015-Feb-18 02:34N 29°56' E 122°09'1312.6
2015-Feb-18 01:33N 29°46' E 122°18'1111.3
2015-Feb-18 00:33N 29°47' E 122°31'2 1.8
2015-Feb-17 23:33N 29°46' E 122°33'3 3.5
2015-Feb-17 22:33N 29°44' E 122°35'2 1.8
2015-Feb-17 21:34N 29°45' E 122°37'3 3.4
2015-Feb-17 20:33N 29°45' E 122°41'10 9.1
2015-Feb-17 19:28N 29°37' E 122°48'2110.7
2015-Feb-17 17:32N 29°17' E 122°42'1411.4
2015-Feb-17 16:21N 29°04' E 122°38'1011.6
2015-Feb-17 15:27N 28°54' E 122°35'28611.4
2015-Feb-16 14:23N 24°50' E 119°47'11 1.8
2015-Feb-16 08:04N 24°42' E 119°39'0 0.4
2015-Feb-16 07:33N 24°41' E 119°39'1 0.6
2015-Feb-16 06:33N 24°41' E 119°39'5 5.3
2015-Feb-16 05:33N 24°38' E 119°34'1414.1
2015-Feb-16 04:32N 24°28' E 119°22'6813.0
2015-Feb-15 23:19N 23°41' E 118°30'9912.8
2015-Feb-15 15:33N 22°43' E 117°02'14712.2
2015-Feb-15 03:32N 22°08' E 114°28'1211.8
2015-Feb-15 02:33N 22°06' E 114°15'10 4.3
2015-Feb-15 00:15N 22°03' E 114°05'12 1.5
2015-Feb-14 16:09N 22°05' E 113°52'6 9.3
2015-Feb-14 15:33N 22°09' E 113°47'1111.0
2015-Feb-14 14:33N 22°20' E 113°48'16 1.0
2015-Feb-13 23:30N 22°35' E 113°43'1414.6
2015-Feb-13 22:33N 22°22' E 113°47'  
Track history (hours):
 
Tides and Currents Weather Stations Pressure Air Temp Water Temp Dewpoint Dewpoint Depression Visibility Wind Speed Wind Dir Waves Ship Positions

Deva

Last reported at 2015-Feb-23 22:32 UTC. Time now 2015-Mar-03 07:22 UTC.
Position N 31°03' E 122°35'.

Length 259 m; draft 8.8 m.

Type: Ship (hazmat cat A). MMSI: 636013644.

Date/timePositionNaut miles runAvg speedWind from/ knotsBaromVisibWave heightAir tempDewpointWater temp
2015-Feb-23 22:32N 31°03' E 122°35'1212.5
2015-Feb-23 21:33N 31°06' E 122°21'1514.7
2015-Feb-23 20:34N 31°13' E 122°06'1514.7
2015-Feb-23 19:34N 31°17' E 121°49'1211.7
2015-Feb-23 18:34N 31°22' E 121°37'2 2.1
2015-Feb-23 17:31N 31°23' E 121°35'0 0.0
2015-Feb-23 16:31N 31°23' E 121°35'0 0.0
2015-Feb-23 15:31N 31°23' E 121°35'0 0.0
2015-Feb-23 14:31N 31°23' E 121°35'0 0.0
2015-Feb-23 13:31N 31°23' E 121°35'0 0.0
2015-Feb-23 12:31N 31°23' E 121°35'0 0.0
2015-Feb-23 11:31N 31°23' E 121°35'0 0.0
2015-Feb-23 10:31N 31°23' E 121°35'0 0.0
2015-Feb-23 09:31N 31°23' E 121°35'0 0.0
2015-Feb-23 08:31N 31°23' E 121°35'0 0.0
2015-Feb-23 07:31N 31°23' E 121°35'0 0.0
2015-Feb-23 06:34N 31°23' E 121°35'6 5.8
2015-Feb-23 05:33N 31°20' E 121°41'1313.0
2015-Feb-23 04:33N 31°16' E 121°55'1212.2
2015-Feb-23 03:34N 31°12' E 122°09'1110.8
2015-Feb-23 02:34N 31°06' E 122°19'1010.1
2015-Feb-23 01:33N 31°06' E 122°31'7 5.0
2015-Feb-23 00:13N 31°10' E 122°38'0 0.0
2015-Feb-22 23:07N 31°10' E 122°38'0 0.1
2015-Feb-22 22:04N 31°10' E 122°38'0 0.0
2015-Feb-22 19:33N 31°10' E 122°38'0 0.0
2015-Feb-22 15:24N 31°10' E 122°38'0 0.1
2015-Feb-22 14:33N 31°10' E 122°38'0 0.0
2015-Feb-22 13:09N 31°10' E 122°38'1 0.2
2015-Feb-22 07:23N 31°09' E 122°39'8110.3
2015-Feb-21 23:32N 29°49' E 122°35'1110.8
2015-Feb-21 22:33N 29°43' E 122°25'1313.4
2015-Feb-21 21:33N 29°50' E 122°12'1312.9
2015-Feb-21 20:33N 29°57' E 121°60'8 7.9
2015-Feb-21 19:33N 29°57' E 121°50'0 0.0
2015-Feb-21 18:33N 29°57' E 121°50'0 0.0
2015-Feb-21 17:27N 29°57' E 121°50'0 0.0
2015-Feb-21 16:33N 29°57' E 121°50'0 0.0
2015-Feb-21 15:33N 29°57' E 121°50'0 0.0
2015-Feb-21 14:33N 29°57' E 121°50'0 0.0
2015-Feb-21 13:33N 29°57' E 121°50'0 0.0
2015-Feb-21 12:15N 29°57' E 121°50'0 0.0
2015-Feb-21 11:27N 29°57' E 121°50'0 0.0
2015-Feb-21 10:33N 29°57' E 121°50'0 0.0
2015-Feb-21 09:33N 29°57' E 121°50'0 0.0
2015-Feb-21 08:33N 29°57' E 121°50'0 0.0
2015-Feb-21 07:33N 29°57' E 121°50'0 0.0
2015-Feb-21 06:33N 29°57' E 121°50'2 2.5
2015-Feb-21 05:33N 29°57' E 121°53'1211.7
2015-Feb-21 04:33N 29°56' E 122°07'1111.4
2015-Feb-21 03:33N 29°47' E 122°16'6 2.8
2015-Feb-21 01:25N 29°46' E 122°22'0 0.0
2015-Feb-21 00:19N 29°45' E 122°22'0 0.0
2015-Feb-20 23:25N 29°45' E 122°22'0 0.1
2015-Feb-20 22:19N 29°45' E 122°22'0 0.2
2015-Feb-20 21:25N 29°45' E 122°22'0 0.1
2015-Feb-20 20:16N 29°45' E 122°23'0 0.0
2015-Feb-20 19:13N 29°45' E 122°23'0 0.1
2015-Feb-20 18:19N 29°45' E 122°23'0 0.1
2015-Feb-20 16:13N 29°46' E 122°22'0 0.0
2015-Feb-20 13:31N 29°46' E 122°22'0 0.1
2015-Feb-20 12:31N 29°45' E 122°22'0 0.1
2015-Feb-20 09:13N 29°45' E 122°22'0 0.1
2015-Feb-20 08:10N 29°45' E 122°23'0 0.0
2015-Feb-20 07:31N 29°45' E 122°23'0 0.1
2015-Feb-20 06:31N 29°45' E 122°23'0 0.1
2015-Feb-20 05:25N 29°46' E 122°22'0 0.1
2015-Feb-20 04:24N 29°46' E 122°22'0 0.0
2015-Feb-20 03:30N 29°46' E 122°22'0 0.0
2015-Feb-20 02:12N 29°46' E 122°22'0 0.0
2015-Feb-20 01:24N 29°46' E 122°22'0 0.0
2015-Feb-19 23:24N 29°46' E 122°22'0 0.0
2015-Feb-19 22:30N 29°45' E 122°22'0 0.2
2015-Feb-19 21:24N 29°45' E 122°23'0 0.0
2015-Feb-19 20:24N 29°45' E 122°23'0 0.0
2015-Feb-19 19:18N 29°45' E 122°23'0 0.0
2015-Feb-19 18:30N 29°45' E 122°23'0 0.1
2015-Feb-19 17:06N 29°46' E 122°22'0 0.1
2015-Feb-19 15:30N 29°46' E 122°22'0 0.0
2015-Feb-19 12:24N 29°45' E 122°22'0 0.1
2015-Feb-19 11:30N 29°45' E 122°22'0 0.1
2015-Feb-19 09:18N 29°45' E 122°22'0 0.1
2015-Feb-19 08:30N 29°45' E 122°22'0 0.0
2015-Feb-19 06:30N 29°45' E 122°22'0 0.0
2015-Feb-19 05:33N 29°45' E 122°22'0 0.2
2015-Feb-19 04:12N 29°46' E 122°22'0 0.1
2015-Feb-19 02:18N 29°46' E 122°22'0 0.0
2015-Feb-19 01:30N 29°46' E 122°22'0 0.0
2015-Feb-19 00:18N 29°46' E 122°22'0 0.1
2015-Feb-18 23:12N 29°45' E 122°22'0 0.1
2015-Feb-18 22:30N 29°45' E 122°22'0 0.1
2015-Feb-18 21:33N 29°45' E 122°22'7 7.4
2015-Feb-18 20:33N 29°48' E 122°14'1312.9
2015-Feb-18 19:34N 29°55' E 122°02'8 7.0
2015-Feb-18 18:21N 29°56' E 121°52'0 0.0
2015-Feb-18 17:26N 29°56' E 121°52'0 0.0
2015-Feb-18 16:26N 29°56' E 121°52'0 0.0
2015-Feb-18 15:32N 29°56' E 121°52'0 0.0
2015-Feb-18 14:32N 29°56' E 121°52'0 0.0
2015-Feb-18 13:20N 29°56' E 121°52'0 0.0
2015-Feb-18 12:32N 29°56' E 121°52'0 0.0
2015-Feb-18 11:32N 29°56' E 121°52'0 0.0
2015-Feb-18 10:32N 29°56' E 121°52'0 0.0
2015-Feb-18 09:29N 29°56' E 121°52'0 0.0
2015-Feb-18 08:32N 29°56' E 121°52'0 0.0
2015-Feb-18 07:32N 29°56' E 121°52'0 0.0
2015-Feb-18 06:32N 29°56' E 121°52'0 0.0
2015-Feb-18 05:32N 29°56' E 121°52'0 0.0
2015-Feb-18 04:32N 29°56' E 121°52'3 2.6
2015-Feb-18 03:34N 29°57' E 121°55'1211.8
2015-Feb-18 02:34N 29°56' E 122°09'1312.6
2015-Feb-18 01:33N 29°46' E 122°18'1111.3
2015-Feb-18 00:33N 29°47' E 122°31'2 1.8
2015-Feb-17 23:33N 29°46' E 122°33'3 3.5
2015-Feb-17 22:33N 29°44' E 122°35'2 1.8
2015-Feb-17 21:34N 29°45' E 122°37'3 3.4
2015-Feb-17 20:33N 29°45' E 122°41'10 9.1
2015-Feb-17 19:28N 29°37' E 122°48'2110.7
2015-Feb-17 17:32N 29°17' E 122°42'1411.4
2015-Feb-17 16:21N 29°04' E 122°38'1011.6
2015-Feb-17 15:27N 28°54' E 122°35'28611.4
2015-Feb-16 14:23N 24°50' E 119°47'11 1.8
2015-Feb-16 08:04N 24°42' E 119°39'0 0.4
2015-Feb-16 07:33N 24°41' E 119°39'1 0.6
2015-Feb-16 06:33N 24°41' E 119°39'5 5.3
2015-Feb-16 05:33N 24°38' E 119°34'1414.1
2015-Feb-16 04:32N 24°28' E 119°22'6813.0
2015-Feb-15 23:19N 23°41' E 118°30'9912.8
2015-Feb-15 15:33N 22°43' E 117°02'14712.2
2015-Feb-15 03:32N 22°08' E 114°28'1211.8
2015-Feb-15 02:33N 22°06' E 114°15'10 4.3
2015-Feb-15 00:15N 22°03' E 114°05'12 1.5
2015-Feb-14 16:09N 22°05' E 113°52'6 9.3
2015-Feb-14 15:33N 22°09' E 113°47'1111.0
2015-Feb-14 14:33N 22°20' E 113°48'16 1.0
2015-Feb-13 23:30N 22°35' E 113°43'1414.6
2015-Feb-13 22:33N 22°22' E 113°47'  

Dump ship's entire track history